Time;durP1;ratioP1;P1;durP2;ratioP2;P2;SDS_P1;SDS_P2;PMS_P1;PMS_P2;Temp;Humidity;BMP_temperature;BMP_pressure;BME280_temperature;BME280_humidity;BME280_pressure;Samples;Min_cycle;Max_cycle;Signal;HPM_P1;HPM_P2
2024/02/13 00:01:07;;;;;;;;;;;;;;;7.20;85.28;98820.00;5115860;28;20303;-66
2024/02/13 00:03:36;;;;;;;;;;;;;;;7.22;85.23;98823.38;5115411;28;19919;-66
2024/02/13 00:06:04;;;;;;;;;;;;;;;7.24;85.80;98821.69;5115293;28;20010;-66
2024/02/13 00:08:34;;;;;;;;;;;;;;;7.26;86.19;98824.22;5115058;28;19920;-66
2024/02/13 00:11:15;;;;;;;;;;;;;;;7.25;85.81;98827.59;5115217;28;19927;-65
2024/02/13 00:13:46;;;;;;;;;;;;;;;7.23;86.14;98839.44;5115348;28;19920;-64
2024/02/13 00:16:17;;;;;;;;;;;;;;;7.19;86.05;98840.31;5114956;28;20383;-65
2024/02/13 00:18:47;;;;;;;;;;;;;;;7.15;86.17;98839.44;5114038;28;19919;-66
2024/02/13 00:21:16;;;;;;;;;;;;;;;7.16;86.29;98842.84;5115156;28;20422;-66
2024/02/13 00:23:44;;;;;;;;;;;;;;;7.13;85.94;98843.69;5113694;28;20262;-65
2024/02/13 00:26:13;;;;;;;;;;;;;;;7.03;85.58;98844.53;5113703;28;19973;-65
2024/02/13 00:28:44;;;;;;;;;;;;;;;7.00;86.63;98846.22;5115378;28;19927;-66
2024/02/13 00:31:12;;;;;;;;;;;;;;;6.98;85.80;98856.34;5115141;28;19920;-66
2024/02/13 00:34:00;;;;;;;;;;;;;;;6.98;86.85;98863.16;5114359;28;20408;-65
2024/02/13 00:36:32;;;;;;;;;;;;;;;6.99;86.30;98864.81;5114731;28;19920;-66
2024/02/13 00:39:01;;;;;;;;;;;;;;;6.96;86.55;98865.66;5113800;28;19924;-65
2024/02/13 00:41:29;;;;;;;;;;;;;;;6.98;86.38;98858.91;5113610;28;19973;-65
2024/02/13 00:43:59;;;;;;;;;;;;;;;7.00;86.53;98866.53;5113461;28;19920;-65
2024/02/13 00:46:29;;;;;;;;;;;;;;;7.06;87.00;98876.66;5114663;28;19920;-65
2024/02/13 00:48:58;;;;;;;;;;;;;;;7.04;86.94;98873.28;5113311;28;19920;-66
2024/02/13 00:51:26;;;;;;;;;;;;;;;7.04;86.91;98878.34;5115091;28;19920;-65
2024/02/13 00:53:56;;;;;;;;;;;;;;;7.04;86.54;98873.28;5114539;28;20293;-65
2024/02/13 00:56:24;;;;;;;;;;;;;;;7.04;86.65;98873.28;5114382;28;19919;-65
2024/02/13 00:59:02;;;;;;;;;;;;;;;7.00;86.78;98872.44;5114754;28;19924;-65
2024/02/13 01:01:33;;;;;;;;;;;;;;;7.05;87.45;98877.53;5114515;28;19923;-65
2024/02/13 01:04:04;;;;;;;;;;;;;;;7.05;87.00;98887.66;5114728;28;19930;-65
2024/02/13 01:06:33;;;;;;;;;;;;;;;7.01;87.28;98888.50;5113457;28;20022;-65
2024/02/13 01:09:02;;;;;;;;;;;;;;;6.98;87.53;98879.19;5114699;28;19969;-65
2024/02/13 01:11:33;;;;;;;;;;;;;;;6.89;87.12;98875.81;5114773;28;19931;-64
2024/02/13 01:14:02;;;;;;;;;;;;;;;6.87;87.20;98883.41;5114653;28;19927;-65
2024/02/13 01:16:32;;;;;;;;;;;;;;;6.88;87.77;98887.66;5114741;28;19927;-65
2024/02/13 01:19:00;;;;;;;;;;;;;;;6.90;87.60;98883.44;5114330;28;20414;-66
2024/02/13 01:21:30;;;;;;;;;;;;;;;6.89;87.61;98888.47;5114555;28;19920;-65
2024/02/13 01:23:58;;;;;;;;;;;;;;;6.89;87.20;98893.56;5114311;28;20019;-65
2024/02/13 01:26:28;;;;;;;;;;;;;;;6.85;87.28;98907.09;5114471;28;20281;-65
2024/02/13 01:28:57;;;;;;;;;;;;;;;6.82;87.38;98912.13;5113330;28;20258;-65
2024/02/13 01:31:25;;;;;;;;;;;;;;;6.79;87.46;98912.16;5114149;28;19973;-65
2024/02/13 01:33:56;;;;;;;;;;;;;;;6.78;87.63;98913.84;5115241;28;19919;-65
2024/02/13 01:36:25;;;;;;;;;;;;;;;6.78;87.05;98918.91;5118431;28;19926;-65
2024/02/13 01:38:54;;;;;;;;;;;;;;;6.85;87.91;98922.31;5118015;28;20014;-65
2024/02/13 01:41:24;;;;;;;;;;;;;;;6.90;88.03;98915.53;5118320;28;20030;-65
2024/02/13 01:43:52;;;;;;;;;;;;;;;6.93;87.75;98911.34;5117114;28;19931;-65
2024/02/13 01:46:21;;;;;;;;;;;;;;;6.98;87.53;98918.94;5118370;28;20362;-65
2024/02/13 01:48:49;;;;;;;;;;;;;;;7.02;87.65;98924.03;5117894;28;20334;-65
2024/02/13 01:51:19;;;;;;;;;;;;;;;7.02;87.51;98923.19;5118448;28;19919;-65
2024/02/13 01:53:48;;;;;;;;;;;;;;;7.03;87.34;98917.28;5117787;28;19969;-65
2024/02/13 01:56:16;;;;;;;;;;;;;;;7.04;86.80;98918.94;5118286;28;20420;-65
2024/02/13 01:58:45;;;;;;;;;;;;;;;7.08;87.65;98920.66;5116506;28;19919;-65
2024/02/13 02:01:14;;;;;;;;;;;;;;;7.15;87.35;98922.34;5116723;28;20021;-66
2024/02/13 02:03:43;;;;;;;;;;;;;;;7.24;87.32;98927.44;5116596;28;20369;-65
2024/02/13 02:06:12;;;;;;;;;;;;;;;7.32;86.23;98935.88;5118392;28;20022;-65
2024/02/13 02:08:43;;;;;;;;;;;;;;;7.41;86.32;98935.88;5116346;28;19923;-65
2024/02/13 02:11:12;;;;;;;;;;;;;;;7.48;86.48;98931.66;5118431;27;19920;-65
2024/02/13 02:13:42;;;;;;;;;;;;;;;7.49;85.57;98929.09;5117433;28;19965;-65
2024/02/13 02:16:27;;;;;;;;;;;;;;;7.50;85.82;98930.81;5117774;28;19924;-65
2024/02/13 02:18:56;;;;;;;;;;;;;;;7.52;85.05;98944.34;5117258;28;20369;-65
2024/02/13 02:21:27;;;;;;;;;;;;;;;7.53;85.08;98940.97;5117709;28;19973;-65
2024/02/13 02:23:57;;;;;;;;;;;;;;;7.52;84.52;98941.78;5117343;28;19919;-65
2024/02/13 02:26:43;;;;;;;;;;;;;;;7.51;84.31;98942.63;5117280;28;19924;-65
2024/02/13 02:29:14;;;;;;;;;;;;;;;7.54;83.91;98941.78;5117469;28;19919;-66
2024/02/13 02:31:43;;;;;;;;;;;;;;;7.56;83.72;98935.88;5117123;28;19919;-65
2024/02/13 02:34:14;;;;;;;;;;;;;;;7.54;83.35;98945.19;5117005;28;20263;-65
2024/02/13 02:36:43;;;;;;;;;;;;;;;7.50;83.64;98950.25;5117080;28;19923;-65
2024/02/13 02:39:11;;;;;;;;;;;;;;;7.49;83.43;98957.03;5116842;28;19923;-65
2024/02/13 02:41:40;;;;;;;;;;;;;;;7.49;82.96;98963.78;5116759;28;19920;-65
2024/02/13 02:44:10;;;;;;;;;;;;;;;7.47;83.33;98971.41;5117434;28;19926;-65
2024/02/13 02:46:38;;;;;;;;;;;;;;;7.46;83.31;98973.97;5115986;28;20018;-64
2024/02/13 02:49:07;;;;;;;;;;;;;;;7.48;82.41;98980.75;5116682;28;19924;-65
2024/02/13 02:51:36;;;;;;;;;;;;;;;7.50;82.38;98986.66;5117007;28;19920;-65
2024/02/13 02:54:05;;;;;;;;;;;;;;;7.48;82.12;98988.34;5116736;28;19927;-66
2024/02/13 02:56:35;;;;;;;;;;;;;;;7.43;82.51;98988.34;5116842;28;19920;-65
2024/02/13 02:59:03;;;;;;;;;;;;;;;7.41;82.58;98996.81;5116523;28;20369;-65
2024/02/13 03:01:36;;;;;;;;;;;;;;;7.35;82.05;99001.88;5116794;28;19923;-65
2024/02/13 03:04:06;;;;;;;;;;;;;;;7.32;81.99;99006.94;5117173;28;19920;-65
2024/02/13 03:06:40;;;;;;;;;;;;;;;7.27;82.46;99012.00;5116743;28;19920;-65
2024/02/13 03:09:09;;;;;;;;;;;;;;;7.19;82.36;99015.38;5116447;28;19920;-65
2024/02/13 03:11:37;;;;;;;;;;;;;;;7.15;82.57;99016.22;5116601;28;19919;-65
2024/02/13 03:14:09;;;;;;;;;;;;;;;7.13;81.74;99025.50;5116840;28;20376;-65
2024/02/13 03:16:40;;;;;;;;;;;;;;;7.11;82.07;99027.19;5116639;28;19955;-65
2024/02/13 03:19:09;;;;;;;;;;;;;;;7.14;82.52;99017.91;5115142;28;20461;-66
2024/02/13 03:21:37;;;;;;;;;;;;;;;7.15;81.72;99023.84;5115995;28;20315;-65
2024/02/13 03:24:06;;;;;;;;;;;;;;;7.12;82.13;99027.22;5115960;28;19920;-65
2024/02/13 03:26:34;;;;;;;;;;;;;;;7.14;82.48;99032.28;5116295;28;19973;-65
2024/02/13 03:29:23;;;;;;;;;;;;;;;7.16;82.04;99040.75;5115882;28;19959;-66
2024/02/13 03:31:53;;;;;;;;;;;;;;;7.20;82.54;99052.59;5116161;28;19920;-65
2024/02/13 03:34:22;;;;;;;;;;;;;;;7.21;82.18;99056.84;5116060;28;19926;-65
2024/02/13 03:36:51;;;;;;;;;;;;;;;7.18;81.50;99066.97;5116116;28;19926;-65
2024/02/13 03:39:18;;;;;;;;;;;;;;;7.13;81.69;99066.09;5114600;28;19965;-66
2024/02/13 03:41:46;;;;;;;;;;;;;;;7.06;81.91;99075.38;5115552;28;20361;-65
2024/02/13 03:44:15;;;;;;;;;;;;;;;6.98;81.62;99081.28;5115628;28;20435;-64
2024/02/13 03:46:44;;;;;;;;;;;;;;;6.91;82.04;99084.66;5114694;28;19920;-65
2024/02/13 03:49:15;;;;;;;;;;;;;;;6.86;81.56;99091.38;5114581;28;19920;-65
2024/02/13 03:51:44;;;;;;;;;;;;;;;6.83;81.95;99104.03;5115533;28;19958;-65
2024/02/13 03:54:12;;;;;;;;;;;;;;;6.81;81.49;99103.19;5115733;28;19926;-65
2024/02/13 03:56:42;;;;;;;;;;;;;;;6.79;81.83;99099.81;5115388;28;19920;-65
2024/02/13 03:59:10;;;;;;;;;;;;;;;6.77;81.42;99106.56;5115262;28;20007;-65
2024/02/13 04:01:42;;;;;;;;;;;;;;;6.75;82.02;99109.06;5115505;28;19920;-64
2024/02/13 04:04:11;;;;;;;;;;;;;;;6.74;81.93;99108.22;5115633;28;19959;-65
2024/02/13 04:06:41;;;;;;;;;;;;;;;6.77;82.00;99116.72;5115556;28;19926;-65
2024/02/13 04:09:10;;;;;;;;;;;;;;;6.76;81.43;99120.94;5115172;28;19926;-65
2024/02/13 04:11:39;;;;;;;;;;;;;;;6.74;82.35;99118.34;5114295;28;20018;-65
2024/02/13 04:14:08;;;;;;;;;;;;;;;6.77;81.98;99121.78;5115027;28;20289;-66
2024/02/13 04:16:39;;;;;;;;;;;;;;;6.80;82.21;99106.56;5115314;28;19963;-65
2024/02/13 04:19:07;;;;;;;;;;;;;;;6.85;82.59;99115.03;5115119;28;19919;-65
2024/02/13 04:21:37;;;;;;;;;;;;;;;6.87;82.45;99118.44;5115063;28;19920;-65
2024/02/13 04:24:08;;;;;;;;;;;;;;;6.88;81.76;99120.13;5114994;28;19927;-65
2024/02/13 04:26:39;;;;;;;;;;;;;;;6.87;81.42;99128.56;5115308;28;19919;-65
2024/02/13 04:29:08;;;;;;;;;;;;;;;6.85;81.06;99130.25;5115185;28;20010;-65
2024/02/13 04:31:37;;;;;;;;;;;;;;;6.81;81.39;99126.88;5115004;28;19920;-65
2024/02/13 04:34:07;;;;;;;;;;;;;;;6.77;81.85;99131.94;5114646;28;20017;-65
2024/02/13 04:36:37;;;;;;;;;;;;;;;6.74;81.34;99136.09;5114949;28;20021;-65
2024/02/13 04:39:07;;;;;;;;;;;;;;;6.74;81.87;99133.56;5113570;28;19963;-65
2024/02/13 04:41:37;;;;;;;;;;;;;;;6.74;81.92;99138.66;5113604;28;20011;-65
2024/02/13 04:44:07;;;;;;;;;;;;;;;6.78;81.28;99128.53;5114841;28;19971;-65
2024/02/13 04:46:35;;;;;;;;;;;;;;;6.73;81.18;99134.44;5114573;28;19968;-65
2024/02/13 04:49:05;;;;;;;;;;;;;;;6.67;81.30;99136.91;5114507;28;20292;-66
2024/02/13 04:51:34;;;;;;;;;;;;;;;6.63;81.56;99135.22;5114876;28;19919;-65
2024/02/13 04:54:04;;;;;;;;;;;;;;;6.59;81.34;99133.50;5114372;28;20258;-65
2024/02/13 04:56:33;;;;;;;;;;;;;;;6.55;82.07;99136.84;5114807;28;19923;-65
2024/02/13 04:59:04;;;;;;;;;;;;;;;6.55;81.50;99141.91;5114553;28;19920;-65
2024/02/13 05:01:39;;;;;;;;;;;;;;;6.53;81.21;99148.66;5115007;28;20385;-65
2024/02/13 05:09:39;;;;;;;;;;;;;;;6.42;81.50;99173.09;5117291;28;20373;-65
2024/02/13 05:12:08;;;;;;;;;;;;;;;6.40;81.77;99173.91;5118947;28;19919;-66
2024/02/13 05:14:38;;;;;;;;;;;;;;;6.40;81.92;99176.47;5118817;28;19920;-66
2024/02/13 05:17:08;;;;;;;;;;;;;;;6.40;81.23;99177.31;5118781;28;20367;-65
2024/02/13 05:19:38;;;;;;;;;;;;;;;6.37;81.91;99177.28;5118576;28;19926;-65
2024/02/13 05:22:07;;;;;;;;;;;;;;;6.37;81.83;99179.81;5118733;28;19927;-65
2024/02/13 05:24:38;;;;;;;;;;;;;;;6.34;80.98;99181.47;5118234;28;19920;-65
2024/02/13 05:27:07;;;;;;;;;;;;;;;6.33;81.80;99185.72;5119009;28;19923;-66
2024/02/13 05:29:36;;;;;;;;;;;;;;;6.35;81.59;99189.09;5118536;27;19973;-65
2024/02/13 05:32:06;;;;;;;;;;;;;;;6.33;81.04;99194.97;5118584;28;20045;-65
2024/02/13 05:34:35;;;;;;;;;;;;;;;6.32;82.12;99201.72;5118612;28;20034;-65
2024/02/13 05:37:06;;;;;;;;;;;;;;;6.29;81.58;99198.31;5118374;28;20365;-65
2024/02/13 05:39:34;;;;;;;;;;;;;;;6.26;81.51;99209.28;5118002;28;19927;-65
2024/02/13 05:42:03;;;;;;;;;;;;;;;6.23;81.50;99210.94;5118299;28;19920;-65
2024/02/13 05:44:32;;;;;;;;;;;;;;;6.19;81.56;99215.13;5117964;28;20018;-65
2024/02/13 05:47:02;;;;;;;;;;;;;;;6.17;81.57;99214.25;5118245;28;19926;-65
2024/02/13 05:49:32;;;;;;;;;;;;;;;6.20;81.72;99224.44;5118563;28;19919;-65
2024/02/13 05:52:01;;;;;;;;;;;;;;;6.20;81.50;99234.56;5118205;28;19919;-65
2024/02/13 05:54:30;;;;;;;;;;;;;;;6.19;81.62;99242.97;5117959;28;19942;-64
2024/02/13 05:56:58;;;;;;;;;;;;;;;6.14;81.43;99244.66;5116844;28;20357;-65
2024/02/13 05:59:29;;;;;;;;;;;;;;;6.09;81.23;99246.28;5116510;28;19920;-65
2024/02/13 06:01:59;;;;;;;;;;;;;;;6.06;81.70;99252.16;5117882;28;20010;-65
2024/02/13 06:04:27;;;;;;;;;;;;;;;6.04;81.67;99258.06;5117800;28;19926;-65
2024/02/13 06:06:59;;;;;;;;;;;;;;;5.94;81.77;99266.38;5117678;28;19963;-65
2024/02/13 06:09:28;;;;;;;;;;;;;;;5.89;81.14;99278.13;5117495;28;19927;-65
2024/02/13 06:11:56;;;;;;;;;;;;;;;5.91;81.66;99271.41;5117790;28;19920;-65
2024/02/13 06:14:25;;;;;;;;;;;;;;;5.93;81.71;99284.94;5117616;28;20126;-65
2024/02/13 06:16:54;;;;;;;;;;;;;;;5.91;81.75;99287.44;5117618;28;19927;-65
2024/02/13 06:19:24;;;;;;;;;;;;;;;5.93;81.48;99305.19;5117313;28;19919;-65
2024/02/13 06:21:53;;;;;;;;;;;;;;;5.94;81.67;99301.84;5117335;28;20431;-65
2024/02/13 06:24:23;;;;;;;;;;;;;;;5.99;81.82;99305.28;5115671;28;20281;-66
2024/02/13 06:26:52;;;;;;;;;;;;;;;6.17;81.34;99315.59;5117132;28;19943;-64
2024/02/13 06:29:24;;;;;;;;;;;;;;;6.25;81.38;99314.00;5117482;28;19920;-65
2024/02/13 06:31:54;;;;;;;;;;;;;;;6.27;80.57;99314.00;5117269;28;20014;-65
2024/02/13 06:34:24;;;;;;;;;;;;;;;6.27;80.51;99317.41;5117081;28;19962;-65
2024/02/13 06:36:53;;;;;;;;;;;;;;;6.25;81.01;99324.13;5115489;28;19924;-65
2024/02/13 06:39:25;;;;;;;;;;;;;;;6.23;80.73;99320.75;5116763;28;19919;-65
2024/02/13 06:41:54;;;;;;;;;;;;;;;6.29;80.44;99325.00;5117133;28;19923;-65
2024/02/13 06:44:23;;;;;;;;;;;;;;;6.26;80.97;99314.84;5116702;28;19949;-65
2024/02/13 06:46:52;;;;;;;;;;;;;;;6.25;80.87;99323.28;5117183;28;20315;-65
2024/02/13 06:49:21;;;;;;;;;;;;;;;6.24;80.55;99317.34;5116944;28;19919;-65
2024/02/13 06:51:49;;;;;;;;;;;;;;;6.23;80.43;99320.75;5116907;28;19927;-65
2024/02/13 06:54:20;;;;;;;;;;;;;;;6.27;81.07;99321.59;5116311;28;20334;-65
2024/02/13 06:56:49;;;;;;;;;;;;;;;6.25;81.03;99328.34;5116636;28;20404;-65
2024/02/13 06:59:18;;;;;;;;;;;;;;;6.24;80.71;99331.72;5116728;28;20292;-65
2024/02/13 07:01:47;;;;;;;;;;;;;;;6.26;81.21;99338.53;5116253;28;19928;-65
2024/02/13 07:04:15;;;;;;;;;;;;;;;6.28;81.18;99343.59;5116636;28;19926;-65
2024/02/13 07:06:44;;;;;;;;;;;;;;;6.28;81.27;99344.44;5116260;28;19920;-65
2024/02/13 07:09:33;;;;;;;;;;;;;;;6.28;81.20;99349.50;5116444;28;19924;-65
2024/02/13 07:12:03;;;;;;;;;;;;;;;6.27;80.68;99352.00;5116478;28;20014;-65
2024/02/13 07:14:32;;;;;;;;;;;;;;;6.29;81.57;99361.34;5116533;28;20022;-66
2024/02/13 07:17:00;;;;;;;;;;;;;;;6.29;81.44;99357.94;5116090;28;19920;-65
2024/02/13 07:19:29;;;;;;;;;;;;;;;6.31;81.75;99359.66;5116362;28;20021;-66
2024/02/13 07:21:58;;;;;;;;;;;;;;;6.32;81.54;99361.38;5116361;28;19919;-66
2024/02/13 07:24:26;;;;;;;;;;;;;;;6.32;80.99;99366.44;5115954;28;20002;-65
2024/02/13 07:26:54;;;;;;;;;;;;;;;6.31;81.30;99369.81;5116338;28;20014;-65
2024/02/13 07:29:25;;;;;;;;;;;;;;;6.30;81.63;99368.13;5116163;28;19920;-65
2024/02/13 07:31:54;;;;;;;;;;;;;;;6.32;81.59;99370.66;5115626;28;19919;-64
2024/02/13 07:34:22;;;;;;;;;;;;;;;6.39;81.05;99380.88;5116107;28;19920;-64
2024/02/13 07:36:52;;;;;;;;;;;;;;;6.48;81.86;99388.56;5116038;28;19985;-65
2024/02/13 07:39:21;;;;;;;;;;;;;;;6.55;81.27;99390.34;5116043;28;19923;-65
2024/02/13 07:41:49;;;;;;;;;;;;;;;6.61;81.71;99400.56;5115564;28;19967;-66
2024/02/13 07:44:18;;;;;;;;;;;;;;;6.71;81.18;99397.28;5116019;28;20010;-66
2024/02/13 07:46:47;;;;;;;;;;;;;;;6.83;81.59;99398.25;5115547;28;19919;-66
2024/02/13 07:49:18;;;;;;;;;;;;;;;6.97;81.58;99409.34;5115876;28;19923;-66
2024/02/13 07:51:48;;;;;;;;;;;;;;;7.12;81.50;99409.50;5115670;28;19926;-65
2024/02/13 07:54:17;;;;;;;;;;;;;;;7.28;81.69;99411.31;5115990;28;19966;-66
2024/02/13 07:56:46;;;;;;;;;;;;;;;7.52;81.54;99411.50;5115712;28;19942;-64
2024/02/13 07:59:14;;;;;;;;;;;;;;;7.79;81.18;99411.69;5115184;28;19919;-65
2024/02/13 08:01:43;;;;;;;;;;;;;;;8.08;80.88;99410.16;5115203;28;19920;-65
2024/02/13 08:04:14;;;;;;;;;;;;;;;8.38;80.25;99414.53;5114222;28;19920;-65
2024/02/13 08:06:43;;;;;;;;;;;;;;;8.66;80.46;99415.50;5115246;28;19926;-66
2024/02/13 08:09:13;;;;;;;;;;;;;;;8.89;79.31;99413.84;5115293;28;19976;-67
2024/02/13 08:11:42;;;;;;;;;;;;;;;9.03;78.67;99412.16;5115466;28;19972;-67
2024/02/13 08:14:11;;;;;;;;;;;;;;;9.23;77.38;99413.03;5114172;28;19919;-66
2024/02/13 08:16:40;;;;;;;;;;;;;;;9.41;76.03;99420.66;5115051;28;20300;-66
2024/02/13 08:19:08;;;;;;;;;;;;;;;9.59;75.10;99418.94;5115309;28;20015;-67
2024/02/13 08:21:38;;;;;;;;;;;;;;;9.67;73.89;99422.34;5114845;28;19919;-66
2024/02/13 08:24:08;;;;;;;;;;;;;;;9.68;73.69;99429.13;5114989;28;20288;-66
2024/02/13 08:26:36;;;;;;;;;;;;;;;9.66;72.94;99431.69;5115169;28;19959;-66
2024/02/13 08:29:05;;;;;;;;;;;;;;;9.63;72.94;99438.47;5115105;28;20354;-68
2024/02/13 08:31:34;;;;;;;;;;;;;;;9.57;72.38;99435.94;5115434;28;19920;-67
2024/02/13 08:34:02;;;;;;;;;;;;;;;9.53;72.92;99436.75;5113637;28;19920;-67
2024/02/13 08:36:31;;;;;;;;;;;;;;;9.47;72.89;99439.31;5113405;28;20270;-67
2024/02/13 08:39:02;;;;;;;;;;;;;;;9.44;72.93;99447.81;5104045;28;19943;-67
2024/02/13 08:41:31;;;;;;;;;;;;;;;9.41;72.67;99441.03;5104985;28;19924;-66
2024/02/13 08:44:00;;;;;;;;;;;;;;;9.38;72.33;99443.56;5103582;28;19920;-66
2024/02/13 08:46:29;;;;;;;;;;;;;;;9.41;72.72;99451.22;5102961;28;19985;-65
2024/02/13 08:48:57;;;;;;;;;;;;;;;9.49;72.19;99445.25;5103992;28;19920;-65
2024/02/13 08:51:27;;;;;;;;;;;;;;;9.61;72.31;99450.34;5105118;28;20036;-67
2024/02/13 08:53:56;;;;;;;;;;;;;;;9.70;72.09;99458.00;5103746;28;19919;-67
2024/02/13 08:56:27;;;;;;;;;;;;;;;9.73;71.92;99452.91;5103177;28;19927;-67
2024/02/13 08:58:56;;;;;;;;;;;;;;;9.71;71.74;99454.59;5094090;28;20392;-67
2024/02/13 09:01:25;;;;;;;;;;;;;;;9.71;70.91;99455.47;5092867;28;19920;-66
2024/02/13 09:03:55;;;;;;;;;;;;;;;9.69;70.72;99452.06;5093761;28;19927;-66
2024/02/13 09:06:42;;;;;;;;;;;;;;;9.62;70.68;99464.81;5093558;28;19926;-67
2024/02/13 09:09:30;;;;;;;;;;;;;;;9.57;70.58;99476.69;5094143;28;19981;-66
2024/02/13 09:12:00;;;;;;;;;;;;;;;9.54;70.51;99467.34;5075425;28;20357;-67
2024/02/13 09:14:33;;;;;;;;;;;;;;;9.51;70.72;99479.22;5092859;28;19927;-66
2024/02/13 09:17:02;;;;;;;;;;;;;;;9.42;71.07;99475.84;5094677;28;19963;-67
2024/02/13 09:19:31;;;;;;;;;;;;;;;9.43;70.99;99474.13;5094494;28;19942;-67
2024/02/13 09:22:00;;;;;;;;;;;;;;;9.70;71.03;99486.00;5093760;28;19920;-65
2024/02/13 09:24:28;;;;;;;;;;;;;;;9.97;70.66;99478.34;5093792;28;19920;-66
2024/02/13 09:26:57;;;;;;;;;;;;;;;10.31;70.94;99482.56;5094111;28;19969;-66
2024/02/13 09:29:28;;;;;;;;;;;;;;;10.59;70.92;99486.72;5093720;28;19920;-66
2024/02/13 09:31:56;;;;;;;;;;;;;;;10.65;70.19;99490.94;5093780;28;20437;-66
2024/02/13 09:34:25;;;;;;;;;;;;;;;10.65;69.28;99496.88;5113067;28;20270;-66
2024/02/13 09:36:53;;;;;;;;;;;;;;;10.59;68.78;99496.91;5113281;28;19957;-66
2024/02/13 09:39:22;;;;;;;;;;;;;;;10.66;68.16;99502.84;5114108;28;20250;-66
2024/02/13 09:41:51;;;;;;;;;;;;;;;10.67;67.88;99502.84;5114074;28;19965;-66
2024/02/13 09:44:20;;;;;;;;;;;;;;;10.64;67.62;99510.50;5114389;28;19924;-66
2024/02/13 09:46:51;;;;;;;;;;;;;;;10.72;67.88;99513.88;5114589;28;19919;-66
2024/02/13 09:49:21;;;;;;;;;;;;;;;10.92;67.59;99501.00;5114236;28;19930;-65
2024/02/13 09:51:51;;;;;;;;;;;;;;;10.90;67.18;99506.97;5114221;28;20331;-65
2024/02/13 09:54:21;;;;;;;;;;;;;;;10.88;66.95;99511.25;5114458;28;19924;-65
2024/02/13 09:56:51;;;;;;;;;;;;;;;11.01;66.69;99505.25;5118073;28;20018;-67
2024/02/13 09:59:22;;;;;;;;;;;;;;;11.01;66.24;99510.34;5118298;28;20338;-65
2024/02/13 10:01:52;;;;;;;;;;;;;;;11.13;66.03;99510.28;5117651;28;19919;-67
2024/02/13 10:04:21;;;;;;;;;;;;;;;11.16;65.53;99512.78;5116956;28;19919;-66
2024/02/13 10:06:50;;;;;;;;;;;;;;;11.20;65.70;99511.94;5117608;28;19930;-66
2024/02/13 10:09:20;;;;;;;;;;;;;;;11.28;65.51;99518.69;5117483;28;20266;-65
2024/02/13 10:11:49;;;;;;;;;;;;;;;11.35;65.16;99522.91;5118090;28;20014;-65
2024/02/13 10:14:21;;;;;;;;;;;;;;;11.32;64.80;99515.28;5117673;28;20350;-65
2024/02/13 10:16:51;;;;;;;;;;;;;;;11.24;64.50;99516.16;5117556;27;19923;-66
2024/02/13 10:19:21;;;;;;;;;;;;;;;11.18;64.57;99513.66;5117311;28;19968;-65
2024/02/13 10:21:51;;;;;;;;;;;;;;;11.05;64.40;99517.97;5117161;28;19923;-67
2024/02/13 10:24:23;;;;;;;;;;;;;;;10.77;64.66;99527.47;5116049;28;19934;-67
2024/02/13 10:26:52;;;;;;;;;;;;;;;10.73;65.11;99523.22;5117557;28;19920;-67
2024/02/13 10:29:20;;;;;;;;;;;;;;;10.61;64.81;99515.63;5117459;28;19924;-67
2024/02/13 10:31:49;;;;;;;;;;;;;;;10.42;64.88;99519.09;5117096;28;20338;-67
2024/02/13 10:34:19;;;;;;;;;;;;;;;10.26;64.94;99514.03;5117802;28;19920;-68
2024/02/13 10:36:48;;;;;;;;;;;;;;;10.16;64.72;99518.28;5117026;28;20335;-67
2024/02/13 10:39:19;;;;;;;;;;;;;;;10.10;64.76;99525.94;5117018;28;19919;-65
2024/02/13 10:41:49;;;;;;;;;;;;;;;10.13;64.80;99525.94;5116823;28;19923;-67
2024/02/13 10:44:22;;;;;;;;;;;;;;;10.16;64.57;99530.19;5117191;28;19920;-66
2024/02/13 10:46:56;;;;;;;;;;;;;;;10.19;64.83;99525.09;5115845;28;19919;-65
2024/02/13 10:49:34;;;;;;;;;;;;;;;10.24;64.49;99529.34;5116702;28;20361;-66
2024/02/13 10:52:05;;;;;;;;;;;;;;;10.31;64.57;99531.03;5117356;28;19951;-65
2024/02/13 10:54:37;;;;;;;;;;;;;;;10.35;64.68;99537.81;5115665;28;19968;-66
2024/02/13 10:57:06;;;;;;;;;;;;;;;10.32;64.33;99532.72;5116993;28;19965;-65
2024/02/13 10:59:36;;;;;;;;;;;;;;;10.21;64.78;99529.34;5116528;28;19919;-66
2024/02/13 11:02:06;;;;;;;;;;;;;;;10.23;64.59;99537.84;5115278;28;20284;-66
2024/02/13 11:04:37;;;;;;;;;;;;;;;10.30;64.94;99531.00;5116489;28;19920;-66
2024/02/13 11:07:06;;;;;;;;;;;;;;;10.49;64.60;99536.06;5115354;28;20014;-66
2024/02/13 11:09:37;;;;;;;;;;;;;;;10.70;63.82;99536.00;5116330;28;19969;-66
2024/02/13 11:12:06;;;;;;;;;;;;;;;10.60;63.46;99539.47;5115299;28;19920;-66
2024/02/13 11:14:35;;;;;;;;;;;;;;;10.39;63.53;99543.78;5115366;28;19926;-65
2024/02/13 11:17:09;;;;;;;;;;;;;;;10.19;63.64;99546.34;5116488;28;19920;-65
2024/02/13 11:20:09;;;;;;;;;;;;;;;10.02;64.19;99537.84;5116062;28;20270;-65
2024/02/13 11:22:59;;;;;;;;;;;;;;;9.99;64.86;99548.03;5115897;28;20373;-66
2024/02/13 11:25:29;;;;;;;;;;;;;;;9.99;65.14;99553.13;5115958;27;19919;-66
2024/02/13 11:28:05;;;;;;;;;;;;;;;10.07;65.20;99553.97;5116036;28;19920;-65
2024/02/13 11:30:35;;;;;;;;;;;;;;;10.21;64.76;99552.28;5115068;28;19920;-65
2024/02/13 11:33:06;;;;;;;;;;;;;;;10.58;64.69;99551.34;5114918;28;19968;-65
2024/02/13 11:35:46;;;;;;;;;;;;;;;10.80;63.85;99546.19;5115915;28;19926;-67
2024/02/13 11:38:18;;;;;;;;;;;;;;;10.91;63.13;99544.44;5115913;28;20023;-65
2024/02/13 11:40:48;;;;;;;;;;;;;;;11.03;63.13;99535.03;5116224;28;19927;-66
2024/02/13 11:43:21;;;;;;;;;;;;;;;10.96;62.35;99542.72;5115446;28;20026;-65
2024/02/13 11:45:50;;;;;;;;;;;;;;;10.90;62.13;99537.63;5115941;28;19920;-66
2024/02/13 11:48:20;;;;;;;;;;;;;;;10.81;61.62;99542.78;5097707;28;20026;-67
2024/02/13 11:50:51;;;;;;;;;;;;;;;10.76;61.16;99546.19;5114585;28;19920;-67
2024/02/13 11:53:19;;;;;;;;;;;;;;;10.66;59.93;99549.63;5115513;28;19920;-67
2024/02/13 11:55:49;;;;;;;;;;;;;;;10.61;58.96;99551.34;5114478;28;19920;-66
2024/02/13 11:58:20;;;;;;;;;;;;;;;10.56;58.11;99550.50;5115385;28;20297;-66
2024/02/13 12:01:06;;;;;;;;;;;;;;;10.53;57.48;99547.97;5115566;28;19926;-65
2024/02/13 12:03:53;;;;;;;;;;;;;;;10.57;57.52;99553.91;5115273;28;19920;-66
2024/02/13 12:06:27;;;;;;;;;;;;;;;10.55;57.62;99556.47;5115598;28;19920;-66
2024/02/13 12:08:59;;;;;;;;;;;;;;;10.51;57.49;99559.06;5115395;28;19969;-66
2024/02/13 12:11:29;;;;;;;;;;;;;;;10.69;58.05;99553.88;5115553;28;19926;-66
2024/02/13 12:13:58;;;;;;;;;;;;;;;11.28;58.39;99553.59;5114152;28;19919;-67
2024/02/13 12:16:28;;;;;;;;;;;;;;;11.77;57.58;99551.59;5115326;28;19919;-65
2024/02/13 12:18:57;;;;;;;;;;;;;;;11.74;56.51;99551.63;5115265;28;19923;-69
2024/02/13 12:21:28;;;;;;;;;;;;;;;11.56;56.50;99552.59;5115220;28;19920;-68
2024/02/13 12:24:01;;;;;;;;;;;;;;;11.41;56.27;99548.44;5113794;28;19941;-64
2024/02/13 12:26:32;;;;;;;;;;;;;;;11.25;55.92;99563.84;5115216;28;19927;-65
2024/02/13 12:29:01;;;;;;;;;;;;;;;11.05;55.80;99563.09;5115100;28;19920;-68
2024/02/13 12:31:31;;;;;;;;;;;;;;;10.96;56.01;99563.16;5096919;28;19919;-66
2024/02/13 12:34:04;;;;;;;;;;;;;;;10.85;55.92;99564.88;5096703;28;19920;-64
2024/02/13 12:36:39;;;;;;;;;;;;;;;10.76;55.86;99568.31;5115171;28;20026;-67
2024/02/13 12:39:16;;;;;;;;;;;;;;;10.67;56.14;99571.75;5115161;28;20369;-68
2024/02/13 12:41:46;;;;;;;;;;;;;;;10.69;56.95;99575.16;5113558;28;19923;-66
2024/02/13 12:44:15;;;;;;;;;;;;;;;10.73;57.86;99573.44;5114566;28;19924;-68
2024/02/13 12:46:45;;;;;;;;;;;;;;;10.75;58.43;99580.22;5114905;28;19955;-65
2024/02/13 12:49:16;;;;;;;;;;;;;;;10.76;58.40;99573.44;5112971;28;19954;-68
2024/02/13 12:51:47;;;;;;;;;;;;;;;10.72;58.72;99574.31;5115168;28;19919;-64
2024/02/13 12:54:15;;;;;;;;;;;;;;;10.65;59.39;99580.28;5114459;28;19947;-66
2024/02/13 12:56:43;;;;;;;;;;;;;;;10.55;59.39;99576.91;5113280;28;19923;-64
2024/02/13 12:59:13;;;;;;;;;;;;;;;10.47;59.55;99578.59;5114700;28;19927;-67
2024/02/13 13:01:45;;;;;;;;;;;;;;;10.41;59.73;99583.75;5113313;28;19923;-67
2024/02/13 13:04:15;;;;;;;;;;;;;;;10.31;59.64;99587.16;5114417;28;19924;-66
2024/02/13 13:06:46;;;;;;;;;;;;;;;10.22;60.23;99581.22;5113155;28;19927;-65
2024/02/13 13:09:16;;;;;;;;;;;;;;;10.17;60.98;99588.88;5114819;28;20404;-68
2024/02/13 13:11:55;;;;;;;;;;;;;;;10.12;61.53;99588.00;5114362;28;19951;-66
2024/02/13 13:14:25;;;;;;;;;;;;;;;10.09;61.08;99590.53;5114036;28;19920;-65
2024/02/13 13:16:54;;;;;;;;;;;;;;;10.03;61.35;99600.72;5114488;28;19929;-67